Time;durP1;ratioP1;P1;durP2;ratioP2;P2;SDS_P1;SDS_P2;PMS_P1;PMS_P2;Temp;Humidity;BMP_temperature;BMP_pressure;BME280_temperature;BME280_humidity;BME280_pressure;Samples;Min_cycle;Max_cycle;Signal;HPM_P1;HPM_P2
2023/04/16 00:01:02;;;;;;;;;;;;;;;17.61;35.83;94564.72;4952817;29;19926;-60
2023/04/16 00:03:29;;;;;;;;;;;;;;;17.58;36.23;94570.59;4952425;28;19937;-61
2023/04/16 00:05:56;;;;;;;;;;;;;;;17.50;36.12;94566.06;4952878;29;20374;-61
2023/04/16 00:08:25;;;;;;;;;;;;;;;17.52;35.61;94545.31;4951756;28;20053;-61
2023/04/16 00:10:52;;;;;;;;;;;;;;;17.75;35.50;94565.38;4952790;29;19930;-62
2023/04/16 00:13:19;;;;;;;;;;;;;;;17.65;35.54;94565.63;4952292;29;19933;-60
2023/04/16 00:15:46;;;;;;;;;;;;;;;17.85;35.55;94562.41;4952905;29;19926;-62
2023/04/16 00:18:13;;;;;;;;;;;;;;;17.78;35.58;94565.53;4951893;29;20642;-63
2023/04/16 00:20:39;;;;;;;;;;;;;;;17.64;36.06;94564.88;4952503;29;19952;-61
2023/04/16 00:23:06;;;;;;;;;;;;;;;17.65;35.71;94560.34;4951610;28;19926;-60
2023/04/16 00:25:33;;;;;;;;;;;;;;;17.34;36.00;94567.50;4952840;29;20361;-59
2023/04/16 00:27:59;;;;;;;;;;;;;;;16.22;36.38;94576.53;4951584;29;19993;-62
2023/04/16 00:30:28;;;;;;;;;;;;;;;16.95;35.47;94568.25;4934860;29;19938;-61
2023/04/16 00:32:54;;;;;;;;;;;;;;;17.30;35.07;94562.03;4934633;29;20025;-61
2023/04/16 00:35:21;;;;;;;;;;;;;;;17.16;35.47;94551.53;4950753;28;20353;-61
2023/04/16 00:37:48;;;;;;;;;;;;;;;17.19;36.10;94564.16;4933833;28;20045;-61
2023/04/16 00:40:15;;;;;;;;;;;;;;;17.17;35.71;94561.03;4951896;28;19931;-59
2023/04/16 00:42:42;;;;;;;;;;;;;;;17.32;35.14;94556.47;4950106;28;19926;-62
2023/04/16 00:45:09;;;;;;;;;;;;;;;17.03;35.67;94554.28;4943922;28;19938;-61
2023/04/16 00:47:35;;;;;;;;;;;;;;;16.60;34.26;94561.94;4934203;29;19926;-63
2023/04/16 00:50:03;;;;;;;;;;;;;;;16.67;34.53;94557.00;4934207;29;20017;-63
2023/04/16 00:52:33;;;;;;;;;;;;;;;16.52;35.06;94557.38;4951276;29;19930;-60
2023/04/16 00:55:00;;;;;;;;;;;;;;;16.86;34.23;94554.94;4952521;28;19930;-62
2023/04/16 00:57:26;;;;;;;;;;;;;;;16.78;34.76;94562.84;4951553;29;19966;-60
2023/04/16 00:59:53;;;;;;;;;;;;;;;16.79;34.73;94553.81;4951578;29;19976;-58
2023/04/16 01:02:20;;;;;;;;;;;;;;;16.77;34.18;94556.75;4933571;29;20374;-62
2023/04/16 01:04:49;;;;;;;;;;;;;;;16.94;34.13;94561.38;4952005;28;20021;-63
2023/04/16 01:07:16;;;;;;;;;;;;;;;16.94;34.22;94562.16;4951159;28;20390;-58
2023/04/16 01:09:43;;;;;;;;;;;;;;;17.01;33.62;94557.22;4951465;28;19927;-60
2023/04/16 01:12:09;;;;;;;;;;;;;;;16.86;34.09;94560.25;4950949;29;20064;-58
2023/04/16 01:14:36;;;;;;;;;;;;;;;16.85;33.76;94558.69;4951757;29;19930;-61
2023/04/16 01:17:03;;;;;;;;;;;;;;;16.88;34.28;94560.72;4950988;29;20333;-61
2023/04/16 01:19:30;;;;;;;;;;;;;;;16.73;34.50;94561.09;4951813;29;20053;-60
2023/04/16 01:21:57;;;;;;;;;;;;;;;16.42;35.32;94560.22;4934133;29;19931;-62
2023/04/16 01:24:24;;;;;;;;;;;;;;;16.29;35.13;94562.91;4951685;29;20385;-61
2023/04/16 01:26:51;;;;;;;;;;;;;;;16.25;35.74;94570.66;4950604;29;19934;-62
2023/04/16 01:29:18;;;;;;;;;;;;;;;16.29;35.96;94560.25;4937991;29;19931;-61
2023/04/16 01:31:45;;;;;;;;;;;;;;;16.12;36.68;94539.75;4937231;29;20050;-59
2023/04/16 01:34:22;;;;;;;;;;;;;;;16.02;36.90;94559.22;4951028;29;19930;-62
2023/04/16 01:36:48;;;;;;;;;;;;;;;16.19;37.34;94555.97;4950660;28;20329;-61
2023/04/16 01:39:16;;;;;;;;;;;;;;;16.49;36.95;94550.03;4933561;29;19927;-61
2023/04/16 01:41:42;;;;;;;;;;;;;;;15.81;39.13;94546.75;4933257;29;20037;-60
2023/04/16 01:44:09;;;;;;;;;;;;;;;15.43;40.10;94554.13;4950535;28;20406;-60
2023/04/16 01:46:36;;;;;;;;;;;;;;;16.01;38.54;94555.03;4950768;29;20282;-62
2023/04/16 01:49:03;;;;;;;;;;;;;;;16.20;37.68;94552.25;4950651;29;19930;-61
2023/04/16 01:51:31;;;;;;;;;;;;;;;16.11;38.14;94549.53;4949549;28;19935;-61
2023/04/16 01:53:57;;;;;;;;;;;;;;;16.29;37.45;94547.03;4950604;29;19930;-63
2023/04/16 01:56:25;;;;;;;;;;;;;;;16.35;37.73;94549.25;4950283;28;19930;-63
2023/04/16 01:58:52;;;;;;;;;;;;;;;16.23;38.45;94551.66;4949985;29;19926;-63
2023/04/16 02:01:18;;;;;;;;;;;;;;;16.15;37.96;94539.13;4932723;29;20401;-60
2023/04/16 02:03:46;;;;;;;;;;;;;;;16.18;37.44;94549.13;4932993;29;19987;-59
2023/04/16 02:06:14;;;;;;;;;;;;;;;15.98;38.00;94546.94;4948787;28;20054;-62
2023/04/16 02:08:41;;;;;;;;;;;;;;;16.09;37.88;94543.00;4950178;29;19930;-60
2023/04/16 02:11:08;;;;;;;;;;;;;;;16.21;36.46;94543.25;4949324;28;20100;-62
2023/04/16 02:13:35;;;;;;;;;;;;;;;16.35;35.92;94549.25;4932784;29;19937;-62
2023/04/16 02:16:02;;;;;;;;;;;;;;;16.25;35.54;94538.91;4942774;28;20359;-62
2023/04/16 02:19:04;;;;;;;;;;;;;;;16.12;35.70;94540.53;4932698;29;19927;-61
2023/04/16 02:21:34;;;;;;;;;;;;;;;16.22;34.96;94544.81;4936322;28;19936;-60
2023/04/16 02:24:01;;;;;;;;;;;;;;;15.96;35.80;94538.50;4932743;29;19957;-62
2023/04/16 02:26:29;;;;;;;;;;;;;;;16.22;35.15;94545.56;4949748;28;20382;-58
2023/04/16 02:29:02;;;;;;;;;;;;;;;16.19;35.83;94545.41;4937780;29;19993;-62
2023/04/16 02:31:37;;;;;;;;;;;;;;;16.10;35.95;94541.91;4933144;28;19934;-63
2023/04/16 02:34:04;;;;;;;;;;;;;;;16.45;35.16;94543.75;4933023;29;19931;-60
2023/04/16 02:36:31;;;;;;;;;;;;;;;16.21;35.44;94540.59;4932275;28;19981;-60
2023/04/16 02:38:59;;;;;;;;;;;;;;;16.30;34.77;94536.16;4932719;29;19930;-62
2023/04/16 02:41:25;;;;;;;;;;;;;;;16.24;35.44;94537.34;4932473;29;19961;-62
2023/04/16 02:43:52;;;;;;;;;;;;;;;16.30;35.74;94530.88;4950073;28;19985;-61
2023/04/16 02:46:20;;;;;;;;;;;;;;;16.34;35.32;94526.56;4949912;29;20005;-59
2023/04/16 02:48:48;;;;;;;;;;;;;;;16.31;35.74;94527.16;4932746;29;19935;-62
2023/04/16 02:51:15;;;;;;;;;;;;;;;16.32;35.11;94528.72;4932612;29;19990;-60
2023/04/16 02:53:45;;;;;;;;;;;;;;;16.00;36.00;94528.91;4936778;29;19926;-62
2023/04/16 02:56:12;;;;;;;;;;;;;;;16.18;35.40;94528.75;4948349;29;19950;-61
2023/04/16 02:58:39;;;;;;;;;;;;;;;16.13;36.34;94528.06;4932113;29;20327;-60
2023/04/16 03:01:06;;;;;;;;;;;;;;;16.14;36.45;94527.00;4932920;28;19930;-59
2023/04/16 03:03:33;;;;;;;;;;;;;;;16.07;35.80;94532.72;4951711;28;19977;-64
2023/04/16 03:06:00;;;;;;;;;;;;;;;15.99;36.67;94524.69;4943766;28;19927;-60
2023/04/16 03:08:26;;;;;;;;;;;;;;;16.01;37.07;94533.91;4953211;29;20361;-60
2023/04/16 03:10:53;;;;;;;;;;;;;;;15.97;36.66;94527.63;4954018;29;19926;-62
2023/04/16 03:13:21;;;;;;;;;;;;;;;16.01;36.80;94527.81;4953459;28;20053;-63
2023/04/16 03:15:48;;;;;;;;;;;;;;;15.85;37.28;94539.78;4953577;29;19933;-61
2023/04/16 03:18:15;;;;;;;;;;;;;;;15.84;37.40;94538.22;4935889;29;19966;-63
2023/04/16 03:20:42;;;;;;;;;;;;;;;15.76;37.37;94531.81;4936208;29;20025;-61
2023/04/16 03:23:10;;;;;;;;;;;;;;;15.83;37.40;94531.38;4952769;29;19934;-60
2023/04/16 03:25:39;;;;;;;;;;;;;;;15.80;37.42;94542.56;4953690;29;19933;-62
2023/04/16 03:28:07;;;;;;;;;;;;;;;15.83;37.05;94541.94;4952878;28;20349;-61
2023/04/16 03:30:34;;;;;;;;;;;;;;;15.74;37.29;94527.88;4935821;29;19954;-63
2023/04/16 03:33:02;;;;;;;;;;;;;;;15.78;37.38;94539.41;4952809;29;19986;-61
2023/04/16 03:35:29;;;;;;;;;;;;;;;15.65;38.29;94529.66;4951977;29;19937;-62
2023/04/16 03:37:55;;;;;;;;;;;;;;;15.63;37.30;94540.50;4952614;29;19930;-60
2023/04/16 03:40:22;;;;;;;;;;;;;;;15.62;37.67;94540.81;4943051;29;19926;-63
2023/04/16 03:42:51;;;;;;;;;;;;;;;15.71;37.04;94544.31;4935387;29;19930;-59
2023/04/16 03:45:18;;;;;;;;;;;;;;;15.64;37.55;94536.78;4953698;29;20394;-60
2023/04/16 03:47:51;;;;;;;;;;;;;;;15.66;37.41;94547.03;4938847;28;20001;-62
2023/04/16 03:50:21;;;;;;;;;;;;;;;15.51;37.34;94539.44;4940127;29;19934;-60
2023/04/16 03:52:48;;;;;;;;;;;;;;;15.55;37.36;94541.19;4935487;28;19974;-60
2023/04/16 03:55:16;;;;;;;;;;;;;;;15.54;37.45;94546.78;4935429;29;19930;-60
2023/04/16 03:57:43;;;;;;;;;;;;;;;15.52;36.80;94551.56;4935061;29;19933;-61
2023/04/16 04:00:13;;;;;;;;;;;;;;;15.54;37.61;94555.47;4934659;29;20376;-59
2023/04/16 04:02:45;;;;;;;;;;;;;;;15.66;36.88;94547.03;4935143;29;20034;-60
2023/04/16 04:05:17;;;;;;;;;;;;;;;15.61;36.53;94549.78;4935289;29;19927;-62
2023/04/16 04:07:45;;;;;;;;;;;;;;;15.66;37.16;94560.25;4934842;28;19930;-62
2023/04/16 04:10:13;;;;;;;;;;;;;;;15.67;37.33;94561.84;4944893;28;19930;-61
2023/04/16 04:12:40;;;;;;;;;;;;;;;15.63;37.56;94566.94;4934893;28;19986;-62
2023/04/16 04:15:07;;;;;;;;;;;;;;;15.60;37.91;94564.09;4951772;28;19927;-61
2023/04/16 04:17:34;;;;;;;;;;;;;;;15.63;37.73;94566.13;4934509;29;19997;-61
2023/04/16 04:20:01;;;;;;;;;;;;;;;15.56;38.59;94563.09;4934863;29;19930;-60
2023/04/16 04:22:30;;;;;;;;;;;;;;;15.62;38.17;94567.22;4951094;28;19930;-62
2023/04/16 04:24:56;;;;;;;;;;;;;;;15.57;38.54;94569.94;4935231;29;19958;-61
2023/04/16 04:27:25;;;;;;;;;;;;;;;15.62;38.96;94572.50;4935091;29;19962;-60
2023/04/16 04:29:52;;;;;;;;;;;;;;;15.51;39.49;94576.41;4934576;29;19957;-62
2023/04/16 04:32:20;;;;;;;;;;;;;;;15.54;39.31;94570.53;4934772;29;19984;-60
2023/04/16 04:34:47;;;;;;;;;;;;;;;15.59;39.09;94579.16;4934501;29;19926;-60
2023/04/16 04:37:14;;;;;;;;;;;;;;;15.58;38.93;94587.38;4935085;29;19953;-63
2023/04/16 04:39:42;;;;;;;;;;;;;;;15.63;39.96;94584.63;4934897;29;19938;-59
2023/04/16 04:42:11;;;;;;;;;;;;;;;15.63;39.33;94581.97;4940376;29;19927;-62
2023/04/16 04:44:38;;;;;;;;;;;;;;;15.63;39.24;94592.53;4933921;29;19935;-62
2023/04/16 04:47:05;;;;;;;;;;;;;;;15.62;39.71;94589.13;4934411;29;20390;-59
2023/04/16 04:49:31;;;;;;;;;;;;;;;15.59;39.56;94589.72;4951846;28;20017;-62
2023/04/16 04:51:58;;;;;;;;;;;;;;;15.71;39.60;94587.34;4951582;28;19942;-62
2023/04/16 04:54:25;;;;;;;;;;;;;;;15.64;39.48;94591.47;4934260;29;19954;-60
2023/04/16 04:56:52;;;;;;;;;;;;;;;15.36;40.04;94587.22;4949835;29;19936;-61
2023/04/16 04:59:19;;;;;;;;;;;;;;;15.38;40.05;94587.72;4937614;28;19931;-62
2023/04/16 05:01:46;;;;;;;;;;;;;;;15.55;39.91;94588.72;4934002;29;19985;-61
2023/04/16 05:04:13;;;;;;;;;;;;;;;15.51;39.56;94582.47;4951291;29;19927;-64
2023/04/16 05:06:40;;;;;;;;;;;;;;;15.37;39.37;94591.41;4951177;28;19989;-62
2023/04/16 05:09:10;;;;;;;;;;;;;;;15.57;39.32;94586.56;4951885;28;20506;-62
2023/04/16 05:11:38;;;;;;;;;;;;;;;15.57;39.14;94589.22;4950712;28;19984;-61
2023/04/16 05:14:04;;;;;;;;;;;;;;;15.81;39.40;94581.09;4951383;29;19930;-62
2023/04/16 05:16:31;;;;;;;;;;;;;;;15.68;38.98;94573.94;4950597;29;19966;-63
2023/04/16 05:18:58;;;;;;;;;;;;;;;15.49;39.64;94575.94;4951588;28;20025;-59
2023/04/16 05:21:25;;;;;;;;;;;;;;;15.15;39.73;94582.31;4950405;28;19976;-61
2023/04/16 05:23:52;;;;;;;;;;;;;;;15.42;39.80;94583.44;4951191;29;19933;-61
2023/04/16 05:26:18;;;;;;;;;;;;;;;15.45;38.92;94577.56;4950547;28;19977;-60
2023/04/16 05:28:45;;;;;;;;;;;;;;;15.35;39.64;94583.00;4949799;29;19930;-61
2023/04/16 05:31:12;;;;;;;;;;;;;;;15.58;38.79;94588.16;4948410;29;19930;-60
2023/04/16 05:33:39;;;;;;;;;;;;;;;15.84;38.65;94586.56;4951097;28;19934;-62
2023/04/16 05:36:05;;;;;;;;;;;;;;;15.72;38.97;94588.94;4951024;29;19974;-60
2023/04/16 05:38:32;;;;;;;;;;;;;;;15.67;39.03;94581.13;4950513;29;19989;-62
2023/04/16 05:40:59;;;;;;;;;;;;;;;15.87;38.29;94579.91;4950475;29;20029;-61
2023/04/16 05:43:26;;;;;;;;;;;;;;;15.57;38.91;94580.50;4950903;29;19926;-62
2023/04/16 05:45:52;;;;;;;;;;;;;;;15.35;38.91;94583.00;4950474;29;20394;-62
2023/04/16 05:48:19;;;;;;;;;;;;;;;15.61;37.84;94581.50;4950062;29;20001;-60
2023/04/16 05:50:46;;;;;;;;;;;;;;;15.30;39.10;94575.97;4950188;29;19926;-63
2023/04/16 05:53:13;;;;;;;;;;;;;;;15.66;37.92;94586.66;4950418;29;19970;-62
2023/04/16 05:55:39;;;;;;;;;;;;;;;15.94;37.89;94590.88;4950665;28;19930;-59
2023/04/16 05:58:06;;;;;;;;;;;;;;;15.82;38.19;94588.72;4950683;28;19926;-62
2023/04/16 06:00:33;;;;;;;;;;;;;;;15.80;38.05;94587.47;4950213;29;19930;-64
2023/04/16 06:03:00;;;;;;;;;;;;;;;15.36;38.83;94587.22;4950316;28;19934;-61
2023/04/16 06:05:28;;;;;;;;;;;;;;;15.78;38.21;94587.72;4932965;29;20032;-62
2023/04/16 06:07:55;;;;;;;;;;;;;;;16.28;37.11;94577.97;4949796;29;19926;-64
2023/04/16 06:10:22;;;;;;;;;;;;;;;16.38;36.40;94580.41;4950030;29;19933;-61
2023/04/16 06:12:49;;;;;;;;;;;;;;;15.22;39.05;94577.44;4947781;28;20016;-60
2023/04/16 06:15:15;;;;;;;;;;;;;;;15.11;39.56;94578.69;4948509;28;19934;-61
2023/04/16 06:17:42;;;;;;;;;;;;;;;15.95;37.56;94581.84;4948856;29;20533;-60
2023/04/16 06:20:10;;;;;;;;;;;;;;;16.29;36.21;94582.19;4948510;29;19926;-62
2023/04/16 06:22:36;;;;;;;;;;;;;;;15.90;38.09;94584.59;4949437;29;19982;-63
2023/04/16 06:25:03;;;;;;;;;;;;;;;15.81;38.21;94589.00;4948482;28;20448;-61
2023/04/16 06:27:30;;;;;;;;;;;;;;;16.00;37.86;94579.13;4950112;29;19961;-59
2023/04/16 06:29:57;;;;;;;;;;;;;;;15.77;38.12;94583.53;4949816;29;19930;-60
2023/04/16 06:32:24;;;;;;;;;;;;;;;15.43;38.72;94580.53;4946954;29;19969;-61
2023/04/16 06:34:50;;;;;;;;;;;;;;;16.03;38.09;94576.66;4949390;28;19930;-60
2023/04/16 06:37:17;;;;;;;;;;;;;;;16.29;37.25;94576.91;4946807;28;20291;-61
2023/04/16 06:39:44;;;;;;;;;;;;;;;16.54;37.43;94578.22;4950714;29;19931;-61
2023/04/16 06:42:10;;;;;;;;;;;;;;;15.97;38.70;94575.19;4948704;28;19958;-59
2023/04/16 06:44:37;;;;;;;;;;;;;;;16.29;37.68;94579.56;4948957;28;19938;-61
2023/04/16 06:47:04;;;;;;;;;;;;;;;15.93;37.91;94574.22;4948486;29;20574;-59
2023/04/16 06:49:31;;;;;;;;;;;;;;;16.77;36.94;94572.63;4948838;28;19941;-62
2023/04/16 06:51:57;;;;;;;;;;;;;;;17.13;37.00;94568.03;4948362;28;20556;-60
2023/04/16 06:54:24;;;;;;;;;;;;;;;17.06;36.63;94572.97;4948602;28;19926;-62
2023/04/16 06:56:52;;;;;;;;;;;;;;;17.07;36.81;94576.41;4948737;28;19972;-60
2023/04/16 06:59:18;;;;;;;;;;;;;;;16.06;39.26;94577.91;4948486;29;19942;-60
2023/04/16 07:01:45;;;;;;;;;;;;;;;16.78;38.47;94568.13;4931635;29;20037;-62
2023/04/16 07:04:11;;;;;;;;;;;;;;;17.29;37.40;94568.44;4949157;28;19927;-59
2023/04/16 07:06:39;;;;;;;;;;;;;;;17.49;37.44;94562.63;4948643;29;20653;-62
2023/04/16 07:09:06;;;;;;;;;;;;;;;17.00;39.00;94568.91;4949091;29;20029;-61
2023/04/16 07:11:33;;;;;;;;;;;;;;;16.96;37.74;94565.28;4947714;28;19930;-62
2023/04/16 07:14:00;;;;;;;;;;;;;;;17.14;38.16;94566.16;4949123;28;19930;-61
2023/04/16 07:16:27;;;;;;;;;;;;;;;17.52;37.82;94566.50;4948242;29;19954;-61
2023/04/16 07:18:55;;;;;;;;;;;;;;;17.35;37.37;94577.81;4949373;28;19931;-63
2023/04/16 07:21:21;;;;;;;;;;;;;;;16.40;38.62;94580.91;4948331;29;19927;-62
2023/04/16 07:23:48;;;;;;;;;;;;;;;16.99;37.93;94572.63;4950394;28;19937;-61
2023/04/16 07:26:15;;;;;;;;;;;;;;;16.76;37.90;94576.38;4949248;29;19934;-59
2023/04/16 07:28:41;;;;;;;;;;;;;;;16.84;37.02;94572.22;4949652;28;19930;-60
2023/04/16 07:31:08;;;;;;;;;;;;;;;16.88;37.41;94566.00;4949041;29;19926;-63
2023/04/16 07:33:36;;;;;;;;;;;;;;;17.48;37.08;94560.28;4949873;29;19962;-60
2023/04/16 07:36:05;;;;;;;;;;;;;;;17.35;37.47;94561.91;4948974;28;19991;-60
2023/04/16 07:38:33;;;;;;;;;;;;;;;17.60;37.07;94565.78;4948685;28;20405;-63
2023/04/16 07:41:00;;;;;;;;;;;;;;;17.79;37.00;94561.00;4948802;29;19938;-61
2023/04/16 07:43:27;;;;;;;;;;;;;;;17.20;39.13;94568.41;4949111;28;19934;-62
2023/04/16 07:45:53;;;;;;;;;;;;;;;16.65;38.50;94575.03;4949156;28;19930;-64
2023/04/16 07:48:20;;;;;;;;;;;;;;;17.69;37.39;94566.59;4948653;28;19935;-61
2023/04/16 07:50:48;;;;;;;;;;;;;;;18.18;36.86;94559.06;4948639;28;19930;-63
2023/04/16 07:53:15;;;;;;;;;;;;;;;17.65;37.83;94565.63;4950133;29;19927;-61
2023/04/16 07:55:43;;;;;;;;;;;;;;;17.67;38.23;94560.81;4951067;29;19989;-61
2023/04/16 07:58:10;;;;;;;;;;;;;;;17.78;38.26;94564.75;4950984;28;20009;-63
2023/04/16 08:00:37;;;;;;;;;;;;;;;18.28;37.23;94557.97;4951099;29;19931;-60
2023/04/16 08:03:03;;;;;;;;;;;;;;;18.29;36.96;94564.03;4951152;28;19970;-60
2023/04/16 08:05:30;;;;;;;;;;;;;;;18.00;36.95;94564.63;4952018;28;20420;-61
2023/04/16 08:07:57;;;;;;;;;;;;;;;18.30;36.80;94552.38;4951333;29;20090;-61
2023/04/16 08:10:24;;;;;;;;;;;;;;;18.65;36.61;94552.06;4951963;29;20009;-66
2023/04/16 08:12:50;;;;;;;;;;;;;;;18.77;36.02;94546.91;4951109;29;20017;-62
2023/04/16 08:15:17;;;;;;;;;;;;;;;18.40;35.97;94547.53;4951051;28;20021;-63
2023/04/16 08:17:44;;;;;;;;;;;;;;;19.20;35.35;94547.59;4951718;29;19937;-63
2023/04/16 08:20:11;;;;;;;;;;;;;;;19.62;35.66;94548.56;4949862;28;19930;-59
2023/04/16 08:22:42;;;;;;;;;;;;;;;19.36;35.67;94547.13;4949259;28;19927;-60
2023/04/16 08:25:09;;;;;;;;;;;;;;;19.17;36.27;94536.84;4951553;28;19937;-61
2023/04/16 08:27:36;;;;;;;;;;;;;;;19.95;35.13;94538.06;4950362;28;19926;-60
2023/04/16 08:30:03;;;;;;;;;;;;;;;19.03;36.00;94536.25;4951735;29;19958;-60
2023/04/16 08:32:30;;;;;;;;;;;;;;;19.20;36.25;94536.97;4950367;29;19931;-62
2023/04/16 08:34:56;;;;;;;;;;;;;;;19.34;35.21;94531.50;4952460;29;19926;-61
2023/04/16 08:37:24;;;;;;;;;;;;;;;19.20;35.60;94531.66;4944241;28;19946;-63
2023/04/16 08:39:50;;;;;;;;;;;;;;;19.61;34.29;94519.66;4951379;29;20021;-60
2023/04/16 08:42:43;;;;;;;;;;;;;;;19.96;35.01;94526.34;4949720;28;19933;-62
2023/04/16 08:45:10;;;;;;;;;;;;;;;20.40;33.48;94515.09;4946635;29;20004;-61
2023/04/16 08:47:37;;;;;;;;;;;;;;;20.54;33.58;94523.59;4950654;28;20378;-63
2023/04/16 08:50:04;;;;;;;;;;;;;;;20.51;33.97;94516.25;4950978;29;20048;-61
2023/04/16 08:52:31;;;;;;;;;;;;;;;20.71;34.05;94510.13;4950953;28;19926;-61
2023/04/16 08:54:58;;;;;;;;;;;;;;;21.11;34.11;94505.81;4950809;28;19962;-62
2023/04/16 08:57:29;;;;;;;;;;;;;;;21.29;34.36;94502.97;4950726;28;19930;-60
2023/04/16 08:59:56;;;;;;;;;;;;;;;20.90;34.36;94507.75;4950260;28;19935;-60
2023/04/16 09:05:13;;;;;;;;;;;;;;;21.39;33.58;94495.31;4935107;29;19977;-60
2023/04/16 09:07:40;;;;;;;;;;;;;;;20.46;34.73;94505.81;4949224;28;20037;-61
2023/04/16 09:10:07;;;;;;;;;;;;;;;20.01;33.61;94502.22;4949862;28;19985;-61
2023/04/16 09:12:34;;;;;;;;;;;;;;;20.56;33.56;94497.44;4946826;28;20070;-62
2023/04/16 09:15:02;;;;;;;;;;;;;;;20.60;34.09;94493.00;4950440;29;19989;-63
2023/04/16 09:17:29;;;;;;;;;;;;;;;21.00;32.23;94488.72;4949423;29;19934;-62
2023/04/16 09:19:55;;;;;;;;;;;;;;;20.82;32.37;94487.31;4951652;28;20675;-61
2023/04/16 09:22:25;;;;;;;;;;;;;;;20.81;33.19;94493.75;4949873;28;19981;-64
2023/04/16 09:24:51;;;;;;;;;;;;;;;20.94;33.32;94487.34;4948545;28;19934;-62
2023/04/16 09:27:18;;;;;;;;;;;;;;;20.89;33.66;94490.19;4948658;29;19926;-62
2023/04/16 09:29:45;;;;;;;;;;;;;;;20.82;32.41;94487.31;4950779;28;20334;-62
2023/04/16 09:32:13;;;;;;;;;;;;;;;20.91;32.48;94495.97;4949057;29;20018;-63
2023/04/16 09:34:52;;;;;;;;;;;;;;;21.05;32.36;94493.84;4950890;29;19935;-61
2023/04/16 09:37:19;;;;;;;;;;;;;;;21.76;31.85;94496.09;4948991;28;19933;-60
2023/04/16 09:39:53;;;;;;;;;;;;;;;21.61;32.16;94488.78;4950130;29;19969;-61
2023/04/16 09:42:22;;;;;;;;;;;;;;;21.52;32.53;94485.44;4949526;28;20382;-63
2023/04/16 09:44:51;;;;;;;;;;;;;;;21.91;31.19;94482.13;4950597;28;20001;-65
2023/04/16 09:47:17;;;;;;;;;;;;;;;22.31;30.80;94472.25;4950129;28;19927;-64
2023/04/16 09:49:45;;;;;;;;;;;;;;;21.76;30.90;94472.09;4949074;28;19949;-63
2023/04/16 09:52:17;;;;;;;;;;;;;;;21.39;30.91;94475.88;4948102;29;19930;-62
2023/04/16 09:54:46;;;;;;;;;;;;;;;21.86;30.27;94471.69;4937164;29;20036;-64
2023/04/16 09:57:13;;;;;;;;;;;;;;;21.33;31.97;94467.31;4949067;29;19981;-60
2023/04/16 09:59:40;;;;;;;;;;;;;;;21.49;32.08;94470.13;4950729;28;19930;-65
2023/04/16 10:02:08;;;;;;;;;;;;;;;20.93;30.97;94466.34;4950270;28;19938;-63
2023/04/16 10:04:44;;;;;;;;;;;;;;;21.09;31.95;94457.41;4951082;29;19978;-61
2023/04/16 10:07:12;;;;;;;;;;;;;;;21.04;32.22;94457.66;4949377;28;20454;-61
2023/04/16 10:09:39;;;;;;;;;;;;;;;20.26;33.48;94461.38;4950454;29;19977;-62
2023/04/16 10:12:06;;;;;;;;;;;;;;;20.91;32.11;94455.28;4950088;28;19931;-66
2023/04/16 10:14:33;;;;;;;;;;;;;;;21.10;31.33;94456.34;4950686;28;19930;-62
2023/04/16 10:17:01;;;;;;;;;;;;;;;21.32;31.45;94457.78;4949945;28;19926;-63
2023/04/16 10:19:30;;;;;;;;;;;;;;;20.88;32.04;94451.38;4950534;29;19930;-62
2023/04/16 10:21:58;;;;;;;;;;;;;;;21.02;30.38;94451.88;4950623;29;19993;-64
2023/04/16 10:24:25;;;;;;;;;;;;;;;21.63;30.02;94443.88;4950665;29;20021;-62
2023/04/16 10:26:52;;;;;;;;;;;;;;;21.41;30.50;94439.78;4949540;28;19968;-62
2023/04/16 10:29:19;;;;;;;;;;;;;;;20.97;32.30;94453.94;4950502;28;19969;-62
2023/04/16 10:31:46;;;;;;;;;;;;;;;21.22;31.16;94444.13;4949949;28;19930;-66
2023/04/16 10:34:13;;;;;;;;;;;;;;;21.02;30.27;94441.22;4950880;28;19930;-62
2023/04/16 10:36:40;;;;;;;;;;;;;;;21.57;30.37;94434.59;4950333;29;20337;-64
2023/04/16 10:39:11;;;;;;;;;;;;;;;22.07;30.04;94432.28;4950363;28;20283;-63
2023/04/16 10:41:43;;;;;;;;;;;;;;;21.91;30.94;94440.22;4950342;29;19958;-64
2023/04/16 10:44:10;;;;;;;;;;;;;;;22.40;29.43;94440.84;4950758;28;19930;-65
2023/04/16 10:46:38;;;;;;;;;;;;;;;23.00;27.67;94429.09;4949063;28;19926;-63
2023/04/16 10:49:16;;;;;;;;;;;;;;;22.73;28.19;94430.72;4949907;29;19937;-63
2023/04/16 10:51:51;;;;;;;;;;;;;;;23.26;28.00;94433.94;4950422;29;19989;-63
2023/04/16 10:54:20;;;;;;;;;;;;;;;22.92;28.36;94428.13;4938208;28;19985;-63
2023/04/16 10:56:46;;;;;;;;;;;;;;;23.37;26.58;94426.97;4949768;29;19976;-65
2023/04/16 10:59:17;;;;;;;;;;;;;;;23.04;27.42;94421.94;4921789;29;19926;-62
2023/04/16 11:01:45;;;;;;;;;;;;;;;22.63;28.00;94422.41;4949799;28;20251;-64
2023/04/16 11:04:32;;;;;;;;;;;;;;;22.45;29.37;94421.91;4949939;29;19986;-60
2023/04/16 11:07:03;;;;;;;;;;;;;;;22.51;29.99;94417.88;4949619;28;19926;-60
2023/04/16 11:09:46;;;;;;;;;;;;;;;22.98;28.39;94408.06;4950170;28;20669;-62
2023/04/16 11:12:15;;;;;;;;;;;;;;;23.06;28.16;94399.09;4938978;29;19934;-60
2023/04/16 11:14:41;;;;;;;;;;;;;;;22.82;29.37;94409.97;4950101;29;19935;-63
2023/04/16 11:17:09;;;;;;;;;;;;;;;22.36;29.53;94405.25;4949175;28;20398;-63
2023/04/16 11:19:36;;;;;;;;;;;;;;;22.92;28.75;94397.97;4950279;29;19970;-62
2023/04/16 11:22:04;;;;;;;;;;;;;;;22.80;29.01;94406.84;4950172;28;20302;-64
2023/04/16 11:24:31;;;;;;;;;;;;;;;22.48;28.92;94394.50;4953800;28;20021;-62
2023/04/16 11:26:58;;;;;;;;;;;;;;;22.75;28.23;94388.41;4953584;28;19927;-64
2023/04/16 11:29:24;;;;;;;;;;;;;;;22.81;27.74;94384.34;4948277;29;19926;-63
2023/04/16 11:31:52;;;;;;;;;;;;;;;22.97;28.16;94385.13;4953019;28;19934;-64
2023/04/16 11:34:19;;;;;;;;;;;;;;;22.83;28.89;94379.44;4953133;29;20353;-63
2023/04/16 11:36:47;;;;;;;;;;;;;;;22.17;30.46;94381.88;4952758;28;20449;-64
2023/04/16 11:39:14;;;;;;;;;;;;;;;22.22;30.11;94375.53;4953176;28;19926;-61
2023/04/16 11:41:49;;;;;;;;;;;;;;;22.48;29.34;94367.81;4952654;28;20028;-66
2023/04/16 11:44:20;;;;;;;;;;;;;;;21.94;30.26;94369.41;4953794;28;20013;-64
2023/04/16 11:46:46;;;;;;;;;;;;;;;21.58;29.69;94366.81;4952666;29;20041;-62
2023/04/16 11:49:14;;;;;;;;;;;;;;;22.18;28.51;94369.31;4952879;28;19948;-60
2023/04/16 11:51:42;;;;;;;;;;;;;;;22.01;28.99;94364.25;4952828;29;19932;-62
2023/04/16 11:54:09;;;;;;;;;;;;;;;22.90;28.35;94357.47;4953596;29;20021;-64
2023/04/16 11:56:37;;;;;;;;;;;;;;;22.80;28.69;94366.78;4952576;29;19930;-62
2023/04/16 11:59:25;;;;;;;;;;;;;;;23.11;28.29;94348.06;4953130;28;19954;-60
2023/04/16 12:01:54;;;;;;;;;;;;;;;23.17;28.91;94345.13;4952434;28;19930;-61
2023/04/16 12:04:23;;;;;;;;;;;;;;;22.97;28.98;94342.38;4953409;29;20300;-60
2023/04/16 12:07:09;;;;;;;;;;;;;;;23.45;28.12;94335.09;4951895;28;19950;-59
2023/04/16 12:09:37;;;;;;;;;;;;;;;23.37;27.72;94333.38;4953229;29;19926;-62
2023/04/16 12:12:26;;;;;;;;;;;;;;;23.35;28.32;94325.72;4952179;28;19980;-62
2023/04/16 12:14:55;;;;;;;;;;;;;;;23.44;27.85;94328.19;4952831;29;20341;-60
2023/04/16 12:17:22;;;;;;;;;;;;;;;23.04;28.05;94323.06;4951631;28;19930;-62
2023/04/16 12:19:54;;;;;;;;;;;;;;;22.83;28.12;94323.34;4952512;29;19930;-60
2023/04/16 12:22:27;;;;;;;;;;;;;;;22.74;27.70;94312.06;4952123;29;19930;-61
2023/04/16 12:24:55;;;;;;;;;;;;;;;22.42;28.12;94315.03;4952349;29;20052;-59
2023/04/16 12:27:27;;;;;;;;;;;;;;;22.88;28.02;94315.06;4950846;29;19930;-63
2023/04/16 12:30:06;;;;;;;;;;;;;;;23.23;29.03;94322.34;4949939;29;19961;-61
2023/04/16 12:32:33;;;;;;;;;;;;;;;23.12;27.72;94312.19;4949309;28;19962;-62
2023/04/16 12:35:00;;;;;;;;;;;;;;;22.67;29.26;94311.88;4949067;28;20389;-61
2023/04/16 12:37:26;;;;;;;;;;;;;;;23.06;28.75;94305.56;4950169;28;19927;-62
2023/04/16 12:39:53;;;;;;;;;;;;;;;22.61;29.55;94313.25;4938885;29;20457;-63
2023/04/16 12:42:20;;;;;;;;;;;;;;;22.58;30.15;94308.63;4950324;28;20028;-61
2023/04/16 12:44:47;;;;;;;;;;;;;;;22.74;32.33;94311.28;4952759;28;19926;-61
2023/04/16 12:47:14;;;;;;;;;;;;;;;22.38;34.57;94314.94;4951430;28;19927;-64
2023/04/16 12:49:43;;;;;;;;;;;;;;;22.64;33.17;94311.81;4935080;29;20386;-61
2023/04/16 12:52:09;;;;;;;;;;;;;;;22.45;32.69;94309.78;4951555;28;19977;-61
2023/04/16 12:54:37;;;;;;;;;;;;;;;22.60;32.38;94305.59;4952359;29;20373;-62